createdAt,value
2018-03-23T00:00:43.627Z,4.20
2018-03-23T00:03:46.960Z,5.17
2018-03-23T00:06:50.307Z,3.17
2018-03-23T00:09:53.666Z,2.80
2018-03-23T00:12:57.004Z,3.17
2018-03-23T00:16:00.310Z,2.10
2018-03-23T00:19:03.690Z,2.83
2018-03-23T00:22:07.787Z,5.37
2018-03-23T00:25:11.891Z,2.63
2018-03-23T00:28:15.240Z,3.73
2018-03-23T00:31:18.595Z,3.97
2018-03-23T00:34:21.928Z,3.27
2018-03-23T00:37:25.289Z,2.90
2018-03-23T00:40:28.609Z,2.80
2018-03-23T00:43:31.979Z,2.77
2018-03-23T00:46:35.335Z,2.13
2018-03-23T00:49:38.680Z,1.83
2018-03-23T00:52:42.023Z,1.93
2018-03-23T00:55:45.348Z,2.33
2018-03-23T00:58:48.694Z,3.70
2018-03-23T01:01:52.064Z,3.73
2018-03-23T01:04:55.431Z,3.17
2018-03-23T01:07:58.767Z,5.73
2018-03-23T01:11:02.889Z,2.23
2018-03-23T01:14:06.233Z,2.47
2018-03-23T01:17:09.588Z,3.47
2018-03-23T01:20:12.923Z,1.63
2018-03-23T01:23:16.285Z,2.27
2018-03-23T01:26:19.612Z,1.50
2018-03-23T01:29:22.939Z,3.47
2018-03-23T01:32:26.257Z,3.93
2018-03-23T01:35:30.394Z,1.40
2018-03-23T01:38:33.758Z,4.33
2018-03-23T01:41:37.215Z,2.23
2018-03-23T01:44:40.541Z,4.67
2018-03-23T01:47:43.941Z,2.50
2018-03-23T01:50:47.299Z,2.20
2018-03-23T01:53:50.632Z,1.93
2018-03-23T01:56:53.965Z,4.33
2018-03-23T01:59:57.336Z,3.10
2018-03-23T02:03:00.729Z,5.50
2018-03-23T02:06:04.063Z,5.43
2018-03-23T02:09:07.426Z,2.20
2018-03-23T02:12:10.758Z,1.87
2018-03-23T02:15:14.128Z,1.70
2018-03-23T02:18:17.439Z,3.57
2018-03-23T02:21:20.808Z,3.80
2018-03-23T02:24:24.188Z,3.00
2018-03-23T02:27:27.521Z,3.80
2018-03-23T02:30:30.889Z,3.40
2018-03-23T02:33:34.229Z,4.20
2018-03-23T02:36:37.586Z,3.97
2018-03-23T02:39:40.904Z,5.70
2018-03-23T02:42:44.268Z,6.20
2018-03-23T02:45:47.585Z,5.37
2018-03-23T02:48:50.908Z,6.33
2018-03-23T02:51:55.017Z,4.80
2018-03-23T02:54:58.408Z,5.00
2018-03-23T02:58:01.753Z,4.90
2018-03-23T03:01:05.089Z,3.53
2018-03-23T03:04:08.500Z,3.10
2018-03-23T03:07:11.838Z,3.87
2018-03-23T03:10:15.173Z,2.23
2018-03-23T03:13:18.516Z,2.47
2018-03-23T03:16:21.828Z,3.23
2018-03-23T03:19:25.183Z,2.07
2018-03-23T03:22:28.570Z,2.43
2018-03-23T03:40:12.434Z,2.63
2018-03-23T03:43:15.824Z,2.10
2018-03-23T03:46:19.208Z,1.53
2018-03-23T03:49:22.557Z,2.53
2018-03-23T03:52:25.939Z,1.40
2018-03-23T03:55:29.255Z,1.90
2018-03-23T03:58:41.560Z,1.73
2018-03-23T04:01:44.875Z,1.60
2018-03-23T04:04:48.232Z,1.60
2018-03-23T04:07:51.653Z,1.27
2018-03-23T04:10:54.987Z,4.70
2018-03-23T04:13:58.321Z,4.90
2018-03-23T04:17:01.659Z,5.00
2018-03-23T04:20:04.979Z,2.97
2018-03-23T04:23:08.303Z,2.00
2018-03-23T04:26:11.619Z,2.90
2018-03-23T04:29:14.960Z,3.33
2018-03-23T04:32:18.263Z,2.87
2018-03-23T04:35:21.596Z,2.47
2018-03-23T04:38:24.911Z,2.53
2018-03-23T04:41:30.495Z,2.97
2018-03-23T04:44:33.876Z,3.80
2018-03-23T04:47:37.223Z,3.63
2018-03-23T04:50:40.539Z,4.13
2018-03-23T04:53:43.859Z,4.60
2018-03-23T04:56:47.189Z,3.67
2018-03-23T04:59:50.499Z,4.77
2018-03-23T05:02:53.839Z,3.93
2018-03-23T05:05:57.147Z,3.70
2018-03-23T05:09:00.526Z,6.87
2018-03-23T05:12:03.863Z,3.90
2018-03-23T05:15:07.185Z,3.93
2018-03-23T05:18:10.528Z,6.50
2018-03-23T05:21:13.837Z,3.53
2018-03-23T05:24:17.195Z,4.00
2018-03-23T05:27:20.512Z,3.67
2018-03-23T05:30:23.851Z,5.57
2018-03-23T05:33:27.172Z,5.50
2018-03-23T05:36:30.503Z,4.07
2018-03-23T05:39:33.837Z,4.27
2018-03-23T05:42:37.184Z,5.47
2018-03-23T05:45:40.504Z,4.13
2018-03-23T05:48:43.823Z,5.27
2018-03-23T05:51:47.198Z,3.60
2018-03-23T05:54:50.476Z,2.97
2018-03-23T05:58:00.799Z,2.80
2018-03-23T06:01:04.137Z,3.73
2018-03-23T06:04:07.455Z,3.07
2018-03-23T06:07:10.778Z,4.70
2018-03-23T06:10:14.128Z,2.93
2018-03-23T06:13:17.467Z,2.60
2018-03-23T06:16:20.804Z,4.23
2018-03-23T06:19:24.113Z,3.83
2018-03-23T06:22:28.207Z,3.27
2018-03-23T06:25:31.520Z,2.77
2018-03-23T06:28:34.859Z,2.67
2018-03-23T06:31:38.223Z,3.30
2018-03-23T06:34:41.555Z,3.87
2018-03-23T06:37:45.657Z,3.73
2018-03-23T06:40:48.987Z,3.57
2018-03-23T06:43:52.313Z,2.27
2018-03-23T06:46:55.631Z,3.00
2018-03-23T06:49:58.967Z,3.30
2018-03-23T06:53:02.307Z,2.67
2018-03-23T06:56:05.628Z,2.33
2018-03-23T06:59:08.962Z,2.90
2018-03-23T07:02:12.282Z,3.13
2018-03-23T07:05:15.615Z,2.77
2018-03-23T07:08:18.972Z,3.90
2018-03-23T07:11:22.312Z,2.57
2018-03-23T07:14:25.931Z,2.30
2018-03-23T07:17:29.288Z,2.53
2018-03-23T07:20:32.612Z,1.37
2018-03-23T07:23:35.923Z,2.23
2018-03-23T07:26:39.283Z,1.13
2018-03-23T07:29:42.589Z,1.90
2018-03-23T07:32:46.683Z,1.67
2018-03-23T07:35:50.813Z,1.53
2018-03-23T07:38:55.537Z,1.87
2018-03-23T07:41:59.644Z,1.00
2018-03-23T07:45:02.947Z,1.13
2018-03-23T07:48:06.278Z,2.17
2018-03-23T07:51:09.597Z,2.13
2018-03-23T07:54:12.926Z,1.67
2018-03-23T07:57:16.227Z,2.63
2018-03-23T08:00:19.578Z,1.73
2018-03-23T08:03:22.911Z,1.10
2018-03-23T08:06:26.210Z,2.77
2018-03-23T08:09:29.550Z,1.60
2018-03-23T08:12:32.858Z,3.27
2018-03-23T08:15:36.181Z,1.50
2018-03-23T08:18:39.486Z,2.90
2018-03-23T08:21:42.805Z,1.80
2018-03-23T08:24:46.126Z,1.40
2018-03-23T08:27:49.430Z,2.43
2018-03-23T08:30:52.755Z,1.20
2018-03-23T08:33:56.058Z,2.30
2018-03-23T08:36:59.382Z,0.93
2018-03-23T08:40:02.679Z,1.57
2018-03-23T08:43:06.013Z,1.23
2018-03-23T08:46:09.316Z,1.37
2018-03-23T08:49:12.659Z,1.20
2018-03-23T08:52:15.966Z,1.47
2018-03-23T08:55:19.278Z,2.17
2018-03-23T08:58:23.342Z,1.07
2018-03-23T09:01:26.663Z,1.00
2018-03-23T09:04:29.990Z,1.50
2018-03-23T09:07:34.051Z,2.47
2018-03-23T09:10:37.391Z,1.30
2018-03-23T09:13:41.455Z,3.13
2018-03-23T09:16:44.796Z,0.60
2018-03-23T09:19:48.082Z,1.90
2018-03-23T09:22:51.423Z,1.23
2018-03-23T09:25:54.724Z,1.37
2018-03-23T09:28:58.059Z,0.97
2018-03-23T09:32:01.363Z,1.47
2018-03-23T09:35:04.687Z,1.23
2018-03-23T09:38:08.754Z,0.77
2018-03-23T09:41:12.074Z,1.90
2018-03-23T09:44:15.826Z,2.43
2018-03-23T09:47:19.138Z,1.10
2018-03-23T09:50:22.503Z,1.77
2018-03-23T09:53:25.798Z,0.87
2018-03-23T09:56:29.885Z,2.13
2018-03-23T09:59:33.183Z,1.00
2018-03-23T10:02:36.516Z,1.30
2018-03-23T10:05:39.864Z,0.87
2018-03-23T10:08:43.168Z,1.47
2018-03-23T10:11:46.478Z,1.40
2018-03-23T10:14:49.775Z,1.23
2018-03-23T10:17:53.100Z,1.67
2018-03-23T10:20:56.424Z,2.63
2018-03-23T10:23:59.738Z,2.83
2018-03-23T10:27:03.039Z,2.60
2018-03-23T10:30:06.359Z,3.30
2018-03-23T10:33:10.442Z,3.07
2018-03-23T10:36:13.770Z,2.90
2018-03-23T10:39:17.084Z,5.07
2018-03-23T10:42:21.158Z,3.67
2018-03-23T10:45:24.478Z,3.23
2018-03-23T10:48:27.790Z,2.97
2018-03-23T10:51:31.111Z,3.13
2018-03-23T10:54:34.406Z,3.10
2018-03-23T10:57:37.728Z,3.03
2018-03-23T11:00:46.547Z,2.80
2018-03-23T11:03:49.862Z,3.80
2018-03-23T11:06:53.198Z,4.87
2018-03-23T11:09:57.263Z,3.70
2018-03-23T11:13:00.598Z,5.70
2018-03-23T11:16:04.658Z,4.20
2018-03-23T11:19:07.991Z,4.67
2018-03-23T11:22:11.290Z,6.23
2018-03-23T11:25:14.606Z,5.50
2018-03-23T11:28:18.683Z,4.17
2018-03-23T11:31:22.006Z,3.77
2018-03-23T11:34:25.303Z,3.50
2018-03-23T11:37:28.620Z,4.60
2018-03-23T11:40:31.951Z,2.80
2018-03-23T11:43:35.276Z,2.50
2018-03-23T11:46:38.578Z,3.67
2018-03-23T11:49:41.886Z,3.60
2018-03-23T11:52:45.950Z,2.70
2018-03-23T11:55:49.270Z,3.53
2018-03-23T11:58:52.571Z,2.97
2018-03-23T12:01:55.887Z,3.17
2018-03-23T12:04:59.202Z,3.20
2018-03-23T12:08:03.266Z,4.00
2018-03-23T12:11:06.594Z,3.37
2018-03-23T12:14:09.891Z,3.83
2018-03-23T12:17:13.199Z,3.30
2018-03-23T12:20:17.259Z,3.23
2018-03-23T12:23:20.567Z,2.87
2018-03-23T12:26:23.862Z,4.00
2018-03-23T12:29:27.179Z,3.30
2018-03-23T12:32:30.495Z,5.37
2018-03-23T12:35:34.546Z,3.93
2018-03-23T12:38:37.851Z,4.20
2018-03-23T12:41:41.141Z,4.53
2018-03-23T12:44:44.457Z,3.57
2018-03-23T12:47:47.866Z,3.13
2018-03-23T12:50:51.203Z,3.10
2018-03-23T12:53:55.506Z,4.03
2018-03-23T12:56:59.574Z,4.17
2018-03-23T13:00:02.887Z,3.40
2018-03-23T13:03:06.411Z,3.40
2018-03-23T13:06:09.726Z,2.83
2018-03-23T13:09:13.798Z,3.57
2018-03-23T13:12:17.129Z,2.80
2018-03-23T13:15:21.191Z,2.77
2018-03-23T13:18:24.511Z,3.63
2018-03-23T13:21:27.842Z,2.83
2018-03-23T13:24:31.925Z,3.13
2018-03-23T13:27:35.242Z,3.37
2018-03-23T13:30:38.566Z,4.87
2018-03-23T13:33:41.862Z,3.43
2018-03-23T13:36:45.215Z,4.23
2018-03-23T13:39:48.514Z,3.47
2018-03-23T13:42:51.837Z,4.40
2018-03-23T13:45:55.899Z,3.37
2018-03-23T13:48:59.229Z,4.23
2018-03-23T13:52:02.529Z,6.53
2018-03-23T13:55:06.621Z,3.73
2018-03-23T13:58:10.334Z,3.20
2018-03-23T14:01:18.908Z,3.43
2018-03-23T14:04:22.243Z,3.50
2018-03-23T14:07:25.566Z,3.20
2018-03-23T14:10:28.910Z,2.77
2018-03-23T14:13:32.221Z,3.23
2018-03-23T14:16:35.530Z,3.13
2018-03-23T14:19:38.865Z,2.63
2018-03-23T14:22:42.966Z,2.70
2018-03-23T14:25:47.066Z,2.90
2018-03-23T14:28:50.463Z,3.43
2018-03-23T14:31:53.723Z,3.03
2018-03-23T14:34:57.054Z,3.47
2018-03-23T14:38:00.400Z,3.50
2018-03-23T14:41:03.726Z,3.40
2018-03-23T14:44:07.027Z,2.90
2018-03-23T14:47:10.347Z,3.10
2018-03-23T14:50:13.651Z,4.13
2018-03-23T14:53:16.977Z,5.67
2018-03-23T14:56:20.312Z,3.10
2018-03-23T14:59:23.618Z,3.50
2018-03-23T15:02:26.943Z,3.23
2018-03-23T15:05:30.239Z,3.10
2018-03-23T15:08:33.547Z,3.23
2018-03-23T15:11:37.608Z,4.00
2018-03-23T15:14:40.916Z,4.20
2018-03-23T15:17:44.233Z,4.90
2018-03-23T15:20:47.541Z,4.90
2018-03-23T15:23:51.619Z,6.00
2018-03-23T15:26:54.910Z,4.53
2018-03-23T15:29:58.224Z,6.63
2018-03-23T15:33:01.527Z,5.47
2018-03-23T15:36:04.846Z,4.17
2018-03-23T15:39:08.941Z,4.10
2018-03-23T15:42:12.254Z,4.53
2018-03-23T15:45:16.344Z,3.83
2018-03-23T15:48:19.653Z,3.97
2018-03-23T15:51:22.967Z,4.00
2018-03-23T15:54:27.032Z,5.73
2018-03-23T15:57:30.368Z,5.27
2018-03-23T16:00:34.435Z,3.80
2018-03-23T16:03:37.770Z,3.93
2018-03-23T16:06:41.075Z,8.53
2018-03-23T16:09:45.159Z,6.80
2018-03-23T16:12:48.454Z,7.07
2018-03-23T16:15:51.767Z,5.00
2018-03-23T16:18:55.090Z,7.60
2018-03-23T16:21:59.177Z,5.87
2018-03-23T16:25:02.480Z,7.63
2018-03-23T16:28:05.811Z,7.70
2018-03-23T16:31:09.124Z,6.07
2018-03-23T16:34:12.423Z,5.47
2018-03-23T16:37:15.751Z,5.83
2018-03-23T16:40:19.067Z,5.77
2018-03-23T16:43:22.386Z,8.33
2018-03-23T16:46:26.458Z,8.27
2018-03-23T16:49:29.778Z,8.93
2018-03-23T16:52:33.865Z,9.33
2018-03-23T16:55:37.168Z,5.90
2018-03-23T16:58:40.486Z,9.03
2018-03-23T17:01:43.783Z,7.10
2018-03-23T17:04:47.876Z,11.70
2018-03-23T17:07:51.178Z,9.20
2018-03-23T17:10:54.500Z,8.97
2018-03-23T17:13:58.567Z,10.27
2018-03-23T17:17:01.886Z,11.63
2018-03-23T17:20:05.220Z,12.17
2018-03-23T17:23:08.539Z,8.00
2018-03-23T17:26:11.863Z,9.90
2018-03-23T17:29:15.160Z,12.57
2018-03-23T17:32:18.474Z,15.00
2018-03-23T17:35:21.783Z,17.33
2018-03-23T17:38:25.863Z,11.80
2018-03-23T17:41:29.172Z,12.30
2018-03-23T17:44:32.486Z,14.27
2018-03-23T17:47:36.564Z,11.73
2018-03-23T17:50:39.867Z,13.87
2018-03-23T17:53:43.182Z,15.17
2018-03-23T17:56:46.487Z,17.43
2018-03-23T17:59:49.803Z,18.60
2018-03-23T18:02:53.112Z,24.57
2018-03-23T18:05:57.254Z,28.27
2018-03-23T18:09:00.563Z,28.53
2018-03-23T18:12:03.882Z,26.40
2018-03-23T18:15:07.191Z,26.70
2018-03-23T18:18:11.296Z,19.20
2018-03-23T18:21:14.634Z,20.17
2018-03-23T18:24:17.930Z,18.93
2018-03-23T18:27:21.262Z,20.77
2018-03-23T18:30:24.562Z,15.00
2018-03-23T18:33:27.879Z,14.53
2018-03-23T18:36:31.178Z,14.50
2018-03-23T18:39:34.507Z,17.80
2018-03-23T18:42:37.824Z,15.43
2018-03-23T18:45:41.147Z,17.93
2018-03-23T18:48:44.451Z,15.73
2018-03-23T18:51:47.764Z,16.03
2018-03-23T18:54:51.834Z,19.17
2018-03-23T18:57:55.150Z,20.47
2018-03-23T19:00:58.573Z,18.60
2018-03-23T19:04:01.871Z,17.77
2018-03-23T19:07:05.950Z,15.47
2018-03-23T19:10:09.255Z,19.83
2018-03-23T19:13:12.570Z,19.63
2018-03-23T19:16:15.866Z,21.93
2018-03-23T19:19:19.186Z,25.37
2018-03-23T19:22:23.261Z,24.80
2018-03-23T19:25:26.606Z,24.60
2018-03-23T19:28:29.922Z,25.83
2018-03-23T19:31:33.226Z,27.80
2018-03-23T19:34:36.543Z,27.00
2018-03-23T19:37:39.843Z,30.00
2018-03-23T19:40:43.159Z,31.57
2018-03-23T19:43:46.467Z,29.37
2018-03-23T19:46:50.574Z,31.00
2018-03-23T19:49:54.645Z,34.60
2018-03-23T19:52:57.964Z,30.23
2018-03-23T19:56:01.286Z,34.17
2018-03-23T19:59:04.591Z,36.67
2018-03-23T20:02:07.927Z,38.37
2018-03-23T20:05:11.223Z,36.37
2018-03-23T20:08:14.549Z,32.90
2018-03-23T20:11:17.876Z,35.03
2018-03-23T20:14:21.962Z,32.77
2018-03-23T20:17:30.771Z,33.87
2018-03-23T20:20:39.520Z,37.57
2018-03-23T20:23:42.843Z,35.73
2018-03-23T20:26:46.912Z,36.10
2018-03-23T20:29:50.243Z,41.70
2018-03-23T20:32:53.598Z,39.87
2018-03-23T20:35:57.027Z,38.43
2018-03-23T20:39:00.382Z,45.33
2018-03-23T20:42:03.698Z,44.03
2018-03-23T20:45:06.994Z,41.03
2018-03-23T20:48:10.315Z,49.17
2018-03-23T20:51:13.623Z,45.23
2018-03-23T20:54:17.715Z,53.63
2018-03-23T20:57:21.047Z,52.13
2018-03-23T21:00:24.371Z,53.33
2018-03-23T21:03:27.693Z,56.80
2018-03-23T21:06:31.016Z,52.27
2018-03-23T21:09:35.110Z,54.57
2018-03-23T21:12:38.415Z,61.87
2018-03-23T21:15:41.775Z,59.20
2018-03-23T21:18:45.104Z,60.73
2018-03-23T21:21:48.409Z,57.53
2018-03-23T21:24:51.732Z,55.73
2018-03-23T21:27:55.046Z,61.10
2018-03-23T21:30:58.382Z,67.57
2018-03-23T21:34:01.687Z,65.53
2018-03-23T21:37:05.011Z,59.67
2018-03-23T21:40:09.078Z,56.97
2018-03-23T21:43:12.407Z,62.13
2018-03-23T21:46:15.722Z,61.80
2018-03-23T21:49:19.816Z,62.47
2018-03-23T21:52:23.126Z,60.90
2018-03-23T21:55:27.223Z,58.27
2018-03-23T21:58:30.553Z,62.93
2018-03-23T22:01:33.904Z,56.43
2018-03-23T22:04:37.236Z,65.80
2018-03-23T22:07:40.566Z,65.10
2018-03-23T22:10:43.902Z,64.63
2018-03-23T22:13:47.234Z,62.70
2018-03-23T22:16:50.563Z,61.93
2018-03-23T22:19:53.875Z,67.17
2018-03-23T22:22:57.209Z,62.37
2018-03-23T22:26:01.299Z,61.77
2018-03-23T22:29:04.627Z,61.07
2018-03-23T22:32:08.716Z,70.80
2018-03-23T22:35:12.042Z,64.03
2018-03-23T22:38:16.113Z,63.23
2018-03-23T22:41:19.460Z,67.80
2018-03-23T22:44:22.799Z,60.80
2018-03-23T22:47:26.103Z,54.57
2018-03-23T22:50:29.435Z,56.53
2018-03-23T22:53:33.505Z,63.17
2018-03-23T22:56:36.830Z,66.63
2018-03-23T22:59:40.163Z,60.93
2018-03-23T23:02:43.490Z,57.23
2018-03-23T23:05:46.795Z,56.13
2018-03-23T23:08:50.132Z,60.13
2018-03-23T23:11:54.315Z,51.47
2018-03-23T23:14:57.649Z,54.63
2018-03-23T23:18:01.718Z,56.40
2018-03-23T23:21:05.057Z,52.87
2018-03-23T23:24:09.155Z,60.17
2018-03-23T23:27:12.483Z,63.10
2018-03-23T23:30:15.797Z,58.27
2018-03-23T23:33:19.135Z,66.87
2018-03-23T23:36:22.449Z,61.03
2018-03-23T23:39:26.539Z,63.50
2018-03-23T23:42:29.847Z,64.17
2018-03-23T23:45:33.189Z,61.73
2018-03-23T23:48:36.591Z,65.77
2018-03-23T23:51:39.912Z,69.87
2018-03-23T23:54:43.242Z,67.27
2018-03-23T23:57:46.568Z,69.03
